DNPO

Port Harcourt International Airport

Port Harcourt, Nigeria
METAR DNPO 231400Z 23006KT 9999 BKN012 FEW020CB 33/25 Q1010 TEMPO TS
Observed Flight Rules
May-23 @ 14:00 UTC (an hour ago) Marginal Visual Flight Rules
Wind Visibility Clouds
230° at 6 knots 10,000+ meters
  • Broken at 1,200' AGL
  • Few at 2,000' AGL
Temperatures Readings
Current 33°C / 91°F
Dewpoint 25°C / 77°F
Humidity 63%
Altimeter 29.82" Hg
Pressure 1010 hPa
Elevation 18
METAR DNPO 231400Z 23006KT 9999 BKN012 FEW020CB 33/25 Q1010 TEMPO TS
Observed Flight Rules
May-23 @ 14:00 UTC
(an hour ago)
MVFR
Wind Visibility
230° at 6 knots 10,000+ meters
Clouds
  • Broken at 1,200' AGL
  • Few at 2,000' AGL
Temperature Dewpoint
33°C / 91°F 25°C / 77°F
Humidity Altimeter Pressure
63% 29.82" Hg 1010 hPa